Time;durP1;ratioP1;P1;durP2;ratioP2;P2;SDS_P1;SDS_P2;PMS_P1;PMS_P2;Temp;Humidity;BMP_temperature;BMP_pressure;BME280_temperature;BME280_humidity;BME280_pressure;Samples;Min_cycle;Max_cycle;Signal;HPM_P1;HPM_P2
2021/03/25 00:02:00;;;;;;;14.58;11.22;;;;;;;6.46;63.25;101512.08;1734636;82;21141;-46
2021/03/25 00:04:28;;;;;;;12.35;10.20;;;;;;;6.42;63.31;101512.50;1738166;82;21676;-42
2021/03/25 00:06:57;;;;;;;13.18;10.70;;;;;;;6.43;63.44;101509.45;1738975;82;21332;-46
2021/03/25 00:09:32;;;;;;;13.05;10.80;;;;;;;6.42;63.53;101512.50;1737446;80;21564;-47
2021/03/25 00:12:07;;;;;;;13.40;11.40;;;;;;;6.45;63.65;101511.66;1805686;79;22985;-47
2021/03/25 00:14:36;;;;;;;12.15;10.13;;;;;;;6.40;63.78;101511.63;1726743;83;21163;-47
2021/03/25 00:17:05;;;;;;;13.48;11.73;;;;;;;6.42;63.77;101515.08;1725449;83;21295;-47
2021/03/25 00:19:34;;;;;;;12.93;10.58;;;;;;;6.43;63.76;101513.34;1756592;81;21129;-46
2021/03/25 00:22:03;;;;;;;14.43;11.97;;;;;;;6.43;63.83;101507.75;1725471;83;21194;-43
2021/03/25 00:24:32;;;;;;;15.38;11.53;;;;;;;6.40;63.89;101509.03;1744851;81;21307;-42
2021/03/25 00:27:01;;;;;;;13.10;11.35;;;;;;;6.38;64.14;101502.98;1733766;81;21160;-47
2021/03/25 00:29:29;;;;;;;12.78;10.82;;;;;;;6.38;64.23;101500.41;1748489;81;21161;-43
2021/03/25 00:31:57;;;;;;;12.33;10.58;;;;;;;6.39;64.23;101505.13;1747318;81;21294;-46
2021/03/25 00:34:25;;;;;;;14.20;12.07;;;;;;;6.38;64.18;101499.11;1725427;83;21177;-46
2021/03/25 00:36:53;;;;;;;13.38;11.48;;;;;;;6.39;64.22;101500.83;1735055;82;21145;-46
2021/03/25 00:39:21;;;;;;;12.55;9.78;;;;;;;6.37;64.04;101504.25;1737576;82;21153;-44
2021/03/25 00:41:49;;;;;;;11.33;10.08;;;;;;;6.35;64.12;101496.49;1737424;82;21302;-45
2021/03/25 00:44:18;;;;;;;11.93;10.03;;;;;;;6.34;64.12;101501.23;1737843;82;21136;-42
2021/03/25 00:46:46;;;;;;;11.55;9.93;;;;;;;6.32;64.16;101500.36;1738733;81;21172;-48
2021/03/25 00:49:14;;;;;;;10.63;9.20;;;;;;;6.32;64.18;101494.32;1725873;83;21135;-44
2021/03/25 00:51:42;;;;;;;11.70;9.28;;;;;;;6.26;64.10;101499.03;1731585;83;21303;-42
2021/03/25 00:54:10;;;;;;;10.75;9.03;;;;;;;6.23;64.04;101502.86;1728429;82;21302;-46
2021/03/25 00:56:38;;;;;;;10.75;9.00;;;;;;;6.22;63.97;101497.70;1744155;81;21132;-44
2021/03/25 00:59:07;;;;;;;10.03;8.68;;;;;;;6.20;63.99;101500.24;1726681;83;21559;-42
2021/03/25 01:01:36;;;;;;;11.33;9.00;;;;;;;6.19;64.13;101497.23;1717764;83;21308;-46
2021/03/25 01:04:05;;;;;;;13.20;9.15;;;;;;;6.19;64.13;101501.11;1743120;81;21172;-48
2021/03/25 01:06:33;;;;;;;9.90;8.08;;;;;;;6.19;64.08;101500.23;1747441;81;21168;-44
2021/03/25 01:09:11;;;;;;;9.73;8.33;;;;;;;6.17;63.99;101497.66;1718611;82;21164;-45
2021/03/25 01:11:41;;;;;;;12.13;9.95;;;;;;;6.17;64.32;101498.94;1695477;83;21755;-45
2021/03/25 01:14:11;;;;;;;12.43;10.72;;;;;;;6.20;64.39;101502.83;1784306;80;21085;-46
2021/03/25 01:16:44;;;;;;;11.75;9.43;;;;;;;6.23;64.27;101495.11;1755422;80;21176;-47
2021/03/25 01:19:28;;;;;;;11.22;9.35;;;;;;;6.25;64.09;101495.98;1731575;82;21229;-45
2021/03/25 01:21:57;;;;;;;11.75;9.65;;;;;;;6.27;63.90;101488.23;1782237;80;21144;-46
2021/03/25 01:24:26;;;;;;;10.70;9.15;;;;;;;6.25;63.90;101495.98;1772453;80;21145;-45
2021/03/25 01:26:54;;;;;;;12.45;9.80;;;;;;;6.16;63.80;101493.77;1783930;80;21152;-46
2021/03/25 01:29:22;;;;;;;10.80;9.15;;;;;;;6.13;63.90;101493.31;1779801;80;21165;-46
2021/03/25 01:31:52;;;;;;;9.70;8.38;;;;;;;6.13;63.93;101494.61;1777294;80;21184;-42
2021/03/25 01:34:22;;;;;;;11.50;8.68;;;;;;;6.16;64.06;101490.73;1783524;80;21154;-46
2021/03/25 01:36:51;;;;;;;8.60;7.70;;;;;;;6.18;64.09;101486.45;1774450;80;21546;-46
2021/03/25 01:39:22;;;;;;;;;;;;;;;6.20;63.91;101491.20;1739371;82;21158;-42
2021/03/25 01:41:50;;;;;;;8.20;6.95;;;;;;;6.20;63.76;101487.77;1720094;83;20157;-46
2021/03/25 01:44:38;;;;;;;8.88;7.35;;;;;;;6.16;63.51;101485.57;1771042;80;21310;-42
2021/03/25 01:47:09;;;;;;;9.88;7.95;;;;;;;6.15;63.59;101485.14;1716782;83;21180;-46
2021/03/25 01:49:40;;;;;;;10.32;7.17;;;;;;;6.12;63.52;101482.53;1685053;83;21159;-47
2021/03/25 01:52:32;;;;;;;11.20;7.05;;;;;;;6.13;63.60;101480.39;1707544;83;21216;-42
2021/03/25 01:55:31;;;;;;;8.05;7.17;;;;;;;6.22;63.71;101469.27;1803520;79;28614;-46
2021/03/25 01:58:13;;;;;;;7.72;6.92;;;;;;;6.20;63.32;101470.52;1773972;80;21206;-46
2021/03/25 02:01:05;;;;;;;8.40;6.20;;;;;;;6.22;63.04;101472.69;1779189;80;21204;-47
2021/03/25 02:04:05;;;;;;;9.68;6.40;;;;;;;6.21;63.22;101468.39;1768592;80;21160;-46
2021/03/25 02:07:01;;;;;;;7.90;6.25;;;;;;;6.20;62.85;101470.52;1692835;84;21176;-49
2021/03/25 02:09:57;;;;;;;7.72;5.85;;;;;;;6.23;63.23;101465.39;1807194;79;22819;-47
2021/03/25 02:13:23;;;;;;;8.18;6.47;;;;;;;6.21;63.45;101475.27;1772968;80;21101;-46
2021/03/25 02:16:06;;;;;;;8.73;6.17;;;;;;;6.21;63.23;101476.15;1773776;80;21120;-42
2021/03/25 02:18:48;;;;;;;6.53;5.67;;;;;;;6.19;63.07;101475.27;1697901;84;21632;-44
2021/03/25 02:21:56;;;;;;;7.73;6.00;;;;;;;6.14;62.95;101473.06;1709038;84;21176;-47
2021/03/25 02:24:53;;;;;;;12.20;6.03;;;;;;;6.08;63.13;101474.77;1698088;84;21168;-46
2021/03/25 02:27:44;;;;;;;7.22;5.40;;;;;;;6.12;63.34;101478.65;1771581;79;23407;-46
2021/03/25 02:30:20;;;;;;;6.62;5.53;;;;;;;6.10;63.63;101477.77;1732461;82;21172;-43
2021/03/25 02:33:07;;;;;;;6.80;5.25;;;;;;;6.13;63.63;101477.81;1810214;79;23305;-48
2021/03/25 02:35:44;;;;;;;7.58;5.85;;;;;;;6.09;63.52;101475.19;1776603;80;21159;-47
2021/03/25 02:38:28;;;;;;;6.25;5.50;;;;;;;6.14;63.65;101469.19;1771642;79;22918;-42
2021/03/25 02:41:03;;;;;;;6.65;5.80;;;;;;;6.12;63.51;101477.81;1738030;82;21152;-41
2021/03/25 02:43:41;;;;;;;7.72;5.53;;;;;;;6.08;63.25;101467.85;1737666;82;21159;-42
2021/03/25 02:46:27;;;;;;;6.72;5.90;;;;;;;6.06;63.17;101468.27;1729385;82;21152;-46
2021/03/25 02:48:59;;;;;;;7.42;5.78;;;;;;;6.09;63.25;101459.69;1732537;82;21291;-46
2021/03/25 02:51:37;;;;;;;5.95;5.00;;;;;;;6.11;63.11;101460.14;1741287;82;21315;-46
2021/03/25 02:54:06;;;;;;;7.62;5.70;;;;;;;6.14;63.18;101460.15;1756058;81;21183;-45
2021/03/25 02:56:55;;;;;;;7.03;5.10;;;;;;;6.20;62.99;101456.31;1754510;81;21191;-46
2021/03/25 02:59:40;;;;;;;7.42;5.53;;;;;;;6.20;62.85;101453.73;1758864;81;21144;-45
2021/03/25 03:02:21;;;;;;;7.12;6.12;;;;;;;6.25;62.98;101449.47;1805115;79;22956;-42
2021/03/25 03:04:51;;;;;;;7.15;6.00;;;;;;;6.22;63.00;101444.27;1709322;83;21153;-46
2021/03/25 03:07:27;;;;;;;7.00;5.45;;;;;;;6.22;63.10;101454.60;1703357;83;21208;-47
2021/03/25 03:10:00;;;;;;;7.67;6.47;;;;;;;6.24;62.83;101450.34;1700470;83;21231;-45
2021/03/25 03:12:42;;;;;;;6.85;5.97;;;;;;;6.22;62.25;101453.31;1715044;83;21642;-48
2021/03/25 03:15:17;;;;;;;7.62;5.70;;;;;;;6.21;62.63;101455.89;1712096;83;21239;-44
2021/03/25 03:17:50;;;;;;;5.58;4.97;;;;;;;6.25;62.79;101452.05;1703297;83;21184;-47
2021/03/25 03:20:38;;;;;;;7.22;6.20;;;;;;;6.37;62.64;101454.72;1773549;79;22916;-42
2021/03/25 03:23:09;;;;;;;7.45;5.83;;;;;;;6.37;61.80;101456.43;1734666;82;21113;-46
2021/03/25 03:25:39;;;;;;;6.80;5.45;;;;;;;6.39;61.72;101454.72;1738907;82;21113;-47
2021/03/25 03:28:22;;;;;;;7.90;5.85;;;;;;;6.41;61.59;101460.34;1738265;82;21152;-46
2021/03/25 03:30:54;;;;;;;7.42;5.95;;;;;;;6.44;60.83;101450.03;1653177;86;21188;-45
2021/03/25 03:33:36;;;;;;;9.83;6.50;;;;;;;6.49;60.52;101452.20;1771631;79;22972;-45
2021/03/25 03:36:08;;;;;;;7.85;5.83;;;;;;;6.43;59.73;101453.45;1662496;86;21147;-48
2021/03/25 03:38:57;;;;;;;;;;;;;;;6.42;59.73;101451.75;1652889;86;21673;-46
2021/03/25 03:41:42;;;;;;;8.93;6.90;;;;;;;6.41;59.70;101456.46;1651178;86;20162;-46
2021/03/25 03:44:15;;;;;;;7.85;6.17;;;;;;;6.38;59.97;101461.63;1653506;86;21608;-46
2021/03/25 03:46:44;;;;;;;8.83;6.70;;;;;;;6.31;59.61;101458.55;1662762;86;21207;-44
2021/03/25 03:49:20;;;;;;;6.78;5.92;;;;;;;6.28;60.03;101462.43;1662823;86;21644;-43
2021/03/25 03:52:01;;;;;;;6.12;5.53;;;;;;;6.26;59.89;101466.72;1659015;86;21167;-48
2021/03/25 03:54:36;;;;;;;7.95;5.85;;;;;;;6.25;60.19;101459.81;1812098;79;22924;-47
2021/03/25 03:57:23;;;;;;;6.35;5.47;;;;;;;6.22;60.26;101465.39;1780834;80;21172;-46
2021/03/25 04:00:13;;;;;;;6.87;5.80;;;;;;;6.22;60.28;101470.11;1766259;80;21113;-45
2021/03/25 04:02:58;;;;;;;9.50;6.22;;;;;;;6.21;60.14;101472.27;1783928;80;21322;-44
2021/03/25 04:05:43;;;;;;;7.65;5.80;;;;;;;6.20;59.86;101467.94;1831365;77;22920;-42
2021/03/25 04:08:43;;;;;;;7.00;5.45;;;;;;;6.11;59.77;101462.72;1809191;78;21157;-46
2021/03/25 04:11:24;;;;;;;6.58;5.30;;;;;;;6.10;59.67;101467.44;1823326;78;21141;-42
2021/03/25 04:14:01;;;;;;;6.55;5.12;;;;;;;6.09;59.51;101464.44;1814726;78;21138;-45
2021/03/25 04:16:30;;;;;;;7.97;5.60;;;;;;;6.09;59.67;101457.97;1814179;78;21594;-46
2021/03/25 04:19:22;;;;;;;5.60;5.00;;;;;;;6.09;59.81;101457.97;1811618;78;21259;-44
2021/03/25 04:22:06;;;;;;;7.33;5.83;;;;;;;6.09;59.88;101457.97;1806366;78;21260;-48
2021/03/25 04:24:37;;;;;;;9.40;6.78;;;;;;;6.10;59.68;101466.59;1739662;81;21163;-43
2021/03/25 04:27:15;;;;;;;7.60;5.92;;;;;;;6.08;59.58;101458.81;1739769;81;21177;-46
2021/03/25 04:29:48;;;;;;;6.50;4.83;;;;;;;6.06;59.67;101458.39;1739465;82;21290;-47
2021/03/25 04:32:21;;;;;;;6.65;5.20;;;;;;;6.09;60.09;101458.39;1810114;79;22847;-46
2021/03/25 04:34:50;;;;;;;8.40;5.75;;;;;;;6.06;59.63;101466.98;1776857;80;21160;-46
2021/03/25 04:37:18;;;;;;;6.95;4.92;;;;;;;6.04;59.73;101464.81;1773948;80;21140;-42
2021/03/25 04:39:47;;;;;;;7.05;5.40;;;;;;;6.06;59.77;101472.14;1773925;80;21148;-46
2021/03/25 04:42:16;;;;;;;7.47;5.70;;;;;;;6.05;59.19;101469.55;1770641;80;21313;-46
2021/03/25 04:44:51;;;;;;;5.92;4.65;;;;;;;5.98;59.21;101471.22;1782564;80;21160;-45
2021/03/25 04:47:28;;;;;;;5.12;4.50;;;;;;;5.96;59.49;101470.77;1776680;80;21152;-47
2021/03/25 04:50:06;;;;;;;5.30;4.53;;;;;;;5.95;59.67;101471.22;1764821;80;21187;-46
2021/03/25 04:52:36;;;;;;;6.10;5.20;;;;;;;5.96;59.66;101479.38;1770686;80;21188;-47
2021/03/25 04:55:22;;;;;;;6.10;5.37;;;;;;;5.97;59.16;101474.67;1774261;80;21148;-45
2021/03/25 04:58:01;;;;;;;6.08;5.17;;;;;;;5.93;59.22;101472.92;1743101;82;21150;-45
2021/03/25 05:00:41;;;;;;;5.28;4.78;;;;;;;5.95;59.59;101468.63;1804588;79;23108;-45
2021/03/25 05:03:18;;;;;;;6.08;4.85;;;;;;;5.89;59.37;101475.03;1781311;80;21144;-48
2021/03/25 05:05:46;;;;;;;7.50;5.03;;;;;;;5.87;59.61;101474.16;1786701;80;21168;-46
2021/03/25 05:08:19;;;;;;;6.22;4.90;;;;;;;5.88;59.57;101481.04;1743736;81;21635;-46
2021/03/25 05:11:12;;;;;;;5.63;4.93;;;;;;;5.85;59.40;101477.16;1743502;81;21137;-46
2021/03/25 05:13:44;;;;;;;9.18;5.37;;;;;;;5.85;59.91;101483.61;1708412;83;21321;-46
2021/03/25 05:16:20;;;;;;;8.13;5.08;;;;;;;5.88;59.53;101483.63;1725458;83;21762;-46
2021/03/25 05:19:16;;;;;;;5.92;5.20;;;;;;;5.88;59.91;101483.63;1713566;83;21180;-42
2021/03/25 05:22:24;;;;;;;6.00;4.87;;;;;;;5.92;59.86;101494.42;1745205;81;21616;-46
2021/03/25 05:25:28;;;;;;;7.35;4.87;;;;;;;5.94;59.84;101499.17;1715730;82;21168;-41
2021/03/25 05:28:00;;;;;;;6.53;5.75;;;;;;;5.94;59.36;101503.05;1711229;83;21204;-47
2021/03/25 05:30:36;;;;;;;5.90;5.00;;;;;;;5.94;59.84;101505.63;1768197;79;23365;-44
2021/03/25 05:33:14;;;;;;;6.78;4.78;;;;;;;5.88;59.93;101502.99;1741210;82;21177;-45
2021/03/25 05:35:51;;;;;;;7.22;5.22;;;;;;;5.88;60.18;101508.58;1741227;82;21180;-43
2021/03/25 05:38:20;;;;;;;6.35;4.80;;;;;;;5.86;59.98;101499.53;1725222;82;21141;-43
2021/03/25 05:41:12;;;;;;;6.95;5.78;;;;;;;5.86;59.96;101502.11;1738781;82;21656;-47
2021/03/25 05:44:04;;;;;;;8.53;5.87;;;;;;;5.86;60.17;101498.23;1745964;82;21168;-46
2021/03/25 05:46:52;;;;;;;6.80;5.17;;;;;;;5.82;60.58;101499.03;1747641;82;21150;-44
2021/03/25 05:49:59;;;;;;;7.55;5.83;;;;;;;5.80;60.68;101507.19;1737072;82;21151;-47
2021/03/25 05:52:35;;;;;;;7.33;5.78;;;;;;;5.77;60.98;101501.56;1740523;82;21172;-42
2021/03/25 05:55:41;;;;;;;8.93;5.65;;;;;;;5.79;61.12;101501.56;1744640;82;21157;-42
2021/03/25 05:58:38;;;;;;;8.18;5.95;;;;;;;5.79;61.04;101496.41;1744660;82;21133;-45
2021/03/25 06:01:30;;;;;;;8.03;6.35;;;;;;;5.76;61.29;101499.84;1673013;84;21176;-46
2021/03/25 06:04:20;;;;;;;7.92;6.12;;;;;;;5.75;61.29;101500.69;1672636;85;21187;-46
2021/03/25 06:07:13;;;;;;;10.10;7.08;;;;;;;5.74;61.35;101503.26;1676260;85;21197;-47
2021/03/25 06:10:13;;;;;;;6.72;5.53;;;;;;;5.74;61.60;101496.80;1675340;85;21165;-44
2021/03/25 06:13:14;;;;;;;8.25;6.22;;;;;;;5.74;62.04;101500.67;1662304;84;21616;-48
2021/03/25 06:16:15;;;;;;;7.90;6.20;;;;;;;5.76;62.26;101504.14;1674451;85;21197;-47
2021/03/25 06:19:30;;;;;;;8.88;6.80;;;;;;;5.76;62.30;101505.43;1675453;85;21196;-47
2021/03/25 06:22:25;;;;;;;7.40;6.42;;;;;;;5.73;62.62;101510.55;1675402;85;21193;-41
2021/03/25 06:25:18;;;;;;;8.05;6.70;;;;;;;5.67;63.02;101518.23;1643095;86;21283;-46
2021/03/25 06:28:06;;;;;;;7.53;6.47;;;;;;;5.65;63.16;101510.90;1671263;85;21695;-45
2021/03/25 06:30:38;;;;;;;8.90;6.90;;;;;;;5.66;62.95;101511.36;1677239;84;21207;-47
2021/03/25 06:33:31;;;;;;;11.22;7.42;;;;;;;5.55;63.06;101516.41;1673594;84;21199;-46
2021/03/25 06:36:12;;;;;;;10.03;7.87;;;;;;;5.60;63.22;101511.30;1802125;79;22910;-46
2021/03/25 06:38:56;;;;;;;10.15;7.80;;;;;;;5.52;63.65;101515.06;1776488;80;21123;-42
2021/03/25 06:41:30;;;;;;;9.05;6.60;;;;;;;5.46;63.51;101517.58;1784116;80;21730;-45
2021/03/25 06:44:16;;;;;;;9.60;7.17;;;;;;;5.38;63.81;101514.05;1642212;87;21407;-42
2021/03/25 06:46:52;;;;;;;11.08;8.03;;;;;;;5.37;64.20;101517.91;1812757;79;22865;-46
2021/03/25 06:49:34;;;;;;;11.57;8.60;;;;;;;5.32;64.54;101520.85;1755866;81;21155;-46
2021/03/25 06:52:17;;;;;;;12.55;8.50;;;;;;;5.30;64.38;101522.55;1774021;80;21153;-41
2021/03/25 06:54:45;;;;;;;8.53;6.37;;;;;;;5.25;63.55;101521.65;1765533;80;21163;-45
2021/03/25 06:57:17;;;;;;;9.40;7.12;;;;;;;5.20;63.59;101523.30;1777687;80;21144;-45
2021/03/25 06:59:45;;;;;;;8.73;6.77;;;;;;;5.15;63.40;101518.52;1770644;80;21148;-45
2021/03/25 07:02:30;;;;;;;10.98;7.50;;;;;;;5.11;63.79;101514.17;1760303;80;21132;-42
2021/03/25 07:04:59;;;;;;;9.98;8.08;;;;;;;5.08;63.98;101513.70;1741363;81;21135;-41
2021/03/25 07:07:36;;;;;;;7.80;7.00;;;;;;;5.04;64.48;101516.22;1750499;81;21120;-42
2021/03/25 07:11:51;;;;;;;10.93;8.85;;;;;;;4.61;67.20;101527.25;1839828;75;26283;-44
2021/03/25 07:14:23;;;;;;;14.07;10.00;;;;;;;5.08;65.90;101528.30;1746304;80;21252;-44
2021/03/25 07:16:51;;;;;;;10.58;7.37;;;;;;;5.11;65.42;101525.78;1764595;80;21155;-44
2021/03/25 07:19:21;;;;;;;9.68;7.95;;;;;;;5.14;65.38;101529.25;1726235;81;21206;-45
2021/03/25 07:21:51;;;;;;;9.73;7.00;;;;;;;5.13;65.38;101536.98;1749412;78;21176;-45
2021/03/25 07:24:34;;;;;;;9.95;7.30;;;;;;;5.10;65.54;101536.92;1771207;79;21148;-44
2021/03/25 07:27:19;;;;;;;9.48;7.20;;;;;;;5.11;65.62;101542.09;1783536;78;21155;-45
2021/03/25 07:30:04;;;;;;;9.68;7.25;;;;;;;5.14;65.47;101554.17;1788611;78;21494;-45
2021/03/25 07:32:52;;;;;;;8.55;7.20;;;;;;;5.10;65.41;101560.14;1767868;78;21240;-44
2021/03/25 07:35:51;;;;;;;8.83;7.47;;;;;;;5.07;65.52;101560.13;1779199;78;21184;-45
2021/03/25 07:38:32;;;;;;;8.75;7.30;;;;;;;5.07;65.49;101565.28;1784001;79;21672;-44
2021/03/25 07:41:08;;;;;;;8.10;6.80;;;;;;;5.08;65.87;101564.41;1743768;81;21381;-45
2021/03/25 07:44:07;;;;;;;8.48;7.67;;;;;;;5.12;65.92;101555.87;1742781;80;21177;-45
2021/03/25 07:46:47;;;;;;;8.60;7.10;;;;;;;5.16;65.53;101555.06;1764151;79;21329;-45
2021/03/25 07:49:24;;;;;;;9.38;7.60;;;;;;;5.19;65.67;101555.12;1828517;76;21147;-45
2021/03/25 07:52:00;;;;;;;8.63;7.40;;;;;;;5.22;65.69;101544.81;1820609;75;21156;-45
2021/03/25 07:54:37;;;;;;;9.15;8.23;;;;;;;5.21;65.67;101556.88;1756603;80;21211;-45
2021/03/25 07:57:19;;;;;;;9.93;7.50;;;;;;;5.22;65.35;101551.27;1775960;79;22561;-45
2021/03/25 07:59:51;;;;;;;9.08;7.53;;;;;;;5.21;65.62;101548.26;1766973;79;21706;-46
2021/03/25 08:02:36;;;;;;;13.70;11.33;;;;;;;5.24;65.61;101540.54;1754968;80;21156;-45
2021/03/25 08:05:29;;;;;;;19.05;13.48;;;;;;;5.28;65.80;101544.89;1763943;80;21116;-45
2021/03/25 08:08:06;;;;;;;12.05;8.05;;;;;;;5.32;65.54;101541.50;1762651;78;21275;-45
2021/03/25 08:10:41;;;;;;;9.15;8.00;;;;;;;5.33;65.48;101545.41;1752267;79;21208;-45
2021/03/25 08:13:19;;;;;;;8.93;7.08;;;;;;;5.29;65.18;101557.84;1765405;80;21270;-46
2021/03/25 08:16:00;;;;;;;9.58;8.00;;;;;;;5.22;65.45;101541.82;1756934;78;21281;-46
2021/03/25 08:18:51;;;;;;;10.58;7.65;;;;;;;5.21;65.85;101556.00;1700438;83;21196;-47
2021/03/25 08:21:47;;;;;;;8.65;7.72;;;;;;;5.18;65.97;101547.80;1761277;79;21324;-46
2021/03/25 08:24:23;;;;;;;7.55;6.78;;;;;;;5.21;66.11;101548.26;1751694;80;21180;-46
2021/03/25 08:27:12;;;;;;;7.60;6.62;;;;;;;5.19;66.11;101552.53;1757031;79;21243;-46
2021/03/25 08:30:38;;;;;;;9.15;7.17;;;;;;;5.22;66.07;101555.14;1721926;81;21678;-46
2021/03/25 08:33:40;;;;;;;9.45;7.35;;;;;;;5.23;66.00;101555.18;1761892;80;21152;-45
2021/03/25 08:36:17;;;;;;;9.45;7.70;;;;;;;5.34;66.06;101544.96;1768841;78;21404;-45
2021/03/25 08:39:36;;;;;;;12.30;9.60;;;;;;;5.43;65.64;101550.25;1750957;79;21699;-45
2021/03/25 08:42:35;;;;;;;9.35;8.30;;;;;;;5.44;65.70;101550.70;1769429;78;21233;-45
2021/03/25 08:45:19;;;;;;;7.47;6.78;;;;;;;5.39;65.40;101548.48;1773925;78;21234;-45
2021/03/25 08:47:52;;;;;;;7.75;6.90;;;;;;;5.39;65.75;101539.45;1756960;80;21287;-46
2021/03/25 08:50:44;;;;;;;9.48;8.10;;;;;;;5.55;66.18;101545.22;1799919;78;22958;-46
2021/03/25 08:53:36;;;;;;;9.48;7.80;;;;;;;5.57;65.99;101542.23;1782241;80;21127;-45
2021/03/25 08:56:40;;;;;;;10.90;7.45;;;;;;;5.66;66.08;101548.80;1779963;78;21155;-45
2021/03/25 08:59:37;;;;;;;9.88;8.60;;;;;;;5.77;65.11;101549.75;1782669;80;21749;-45
2021/03/25 09:02:36;;;;;;;9.58;8.30;;;;;;;5.77;64.89;101551.92;1778074;80;21155;-45
2021/03/25 09:05:29;;;;;;;11.40;9.08;;;;;;;5.80;64.64;101544.64;1785011;80;21151;-45
2021/03/25 09:07:59;;;;;;;9.95;8.73;;;;;;;5.73;64.88;101550.58;1680068;85;21162;-45
2021/03/25 09:10:44;;;;;;;10.53;8.85;;;;;;;5.76;65.09;101541.58;1685791;85;21286;-45
2021/03/25 09:13:17;;;;;;;10.32;7.87;;;;;;;5.76;64.28;101541.58;1674774;85;21134;-45
2021/03/25 09:15:45;;;;;;;14.20;8.70;;;;;;;5.76;63.96;101542.88;1671775;83;21203;-45
2021/03/25 09:18:17;;;;;;;10.75;8.18;;;;;;;5.77;64.10;101544.17;1683415;85;21193;-45
2021/03/25 09:20:49;;;;;;;8.55;7.62;;;;;;;5.83;64.45;101539.52;1662481;85;21190;-45
2021/03/25 09:23:35;;;;;;;9.13;8.15;;;;;;;6.00;64.53;101547.02;1809625;79;20141;-44
2021/03/25 09:26:15;;;;;;;8.60;7.65;;;;;;;6.04;64.24;101552.64;1775297;80;21148;-45
2021/03/25 09:29:00;;;;;;;7.80;7.03;;;;;;;6.14;63.94;101553.62;1767886;80;21549;-45
2021/03/25 09:31:31;;;;;;;7.97;7.17;;;;;;;6.16;63.35;101552.75;1777219;80;21196;-45
2021/03/25 09:34:16;;;;;;;8.70;7.47;;;;;;;6.14;63.25;101549.30;1669852;83;21197;-45
2021/03/25 09:36:46;;;;;;;7.47;6.20;;;;;;;6.14;63.04;101548.00;1664243;86;21296;-45
2021/03/25 09:39:33;;;;;;;7.03;6.08;;;;;;;6.15;62.76;101544.58;1664002;86;21178;-45
2021/03/25 09:42:07;;;;;;;8.78;6.60;;;;;;;6.15;62.42;101551.03;1664274;86;21155;-45
2021/03/25 09:44:38;;;;;;;7.85;6.80;;;;;;;6.17;62.22;101549.33;1659923;86;21308;-46
2021/03/25 09:47:27;;;;;;;7.95;6.42;;;;;;;6.20;62.29;101550.63;1667100;86;21138;-45
2021/03/25 09:50:18;;;;;;;7.87;6.87;;;;;;;6.30;62.17;101547.30;1760425;79;22938;-46
2021/03/25 09:53:06;;;;;;;7.28;6.58;;;;;;;6.28;61.85;101553.30;1724116;81;21176;-46
2021/03/25 09:55:44;;;;;;;6.50;5.80;;;;;;;6.30;61.61;101553.77;1805623;79;22918;-46
2021/03/25 09:58:44;;;;;;;7.35;6.08;;;;;;;6.24;60.96;101555.42;1776661;80;21183;-46
